Time;durP1;ratioP1;P1;durP2;ratioP2;P2;SDS_P1;SDS_P2;PMS_P1;PMS_P2;Temp;Humidity;BMP_temperature;BMP_pressure;BME280_temperature;BME280_humidity;BME280_pressure;Samples;Min_cycle;Max_cycle;Signal;HPM_P1;HPM_P2
2023/05/30 00:02:14;;;;;;;7.30;6.18;;;20.30;57.50;;;;;;5014276;28;20197;-87
2023/05/30 00:04:39;;;;;;;7.65;6.55;;;20.20;57.60;;;;;;5015389;28;20177;-86
2023/05/30 00:07:06;;;;;;;7.28;6.57;;;20.00;58.10;;;;;;5016040;28;20201;-89
2023/05/30 00:09:32;;;;;;;6.30;5.80;;;20.00;57.70;;;;;;5015101;28;20170;-88
2023/05/30 00:11:57;;;;;;;7.72;6.55;;;20.10;57.40;;;;;;5015772;28;20184;-89
2023/05/30 00:14:26;;;;;;;7.15;6.45;;;20.10;57.40;;;;;;5028537;28;20506;-87
2023/05/30 00:16:52;;;;;;;8.93;5.90;;;20.20;57.40;;;;;;5037875;28;20237;-88
2023/05/30 00:19:22;;;;;;;6.80;6.20;;;20.20;57.10;;;;;;5040253;28;20172;-89
2023/05/30 00:21:48;;;;;;;7.40;6.70;;;20.20;56.70;;;;;;5041552;28;20237;-87
2023/05/30 00:24:16;;;;;;;6.60;6.00;;;20.00;57.20;;;;;;5041981;28;20223;-87
2023/05/30 00:26:57;;;;;;;12.80;6.63;;;20.00;57.00;;;;;;5036612;28;20213;-88
2023/05/30 00:29:22;;;;;;;7.53;5.97;;;20.00;56.70;;;;;;5022835;28;20208;-86
2023/05/30 00:31:48;;;;;;;7.47;6.65;;;19.60;58.10;;;;;;5020917;28;20563;-88
2023/05/30 00:34:14;;;;;;;7.10;5.93;;;19.50;58.40;;;;;;5022162;28;20184;-87
2023/05/30 00:36:39;;;;;;;7.22;6.00;;;19.30;59.10;;;;;;5022074;28;20200;-87
2023/05/30 00:39:06;;;;;;;7.40;6.25;;;19.20;59.20;;;;;;5022268;28;20178;-88
2023/05/30 00:41:31;;;;;;;6.43;5.63;;;19.20;59.20;;;;;;5020943;28;20171;-86
2023/05/30 00:43:57;;;;;;;7.03;6.20;;;19.00;59.90;;;;;;5020629;28;20231;-88
2023/05/30 00:46:29;;;;;;;8.60;6.18;;;18.90;60.10;;;;;;5002433;28;20201;-88
2023/05/30 00:48:56;;;;;;;6.35;5.82;;;19.00;59.90;;;;;;5002678;28;20174;-87
2023/05/30 00:51:24;;;;;;;7.80;6.00;;;18.80;60.10;;;;;;5001169;28;20175;-88
2023/05/30 00:53:50;;;;;;;5.90;5.25;;;18.90;60.20;;;;;;4993407;28;20203;-86
2023/05/30 00:56:16;;;;;;;6.00;5.50;;;18.80;59.80;;;;;;5026257;28;20202;-87
2023/05/30 00:58:42;;;;;;;6.72;5.32;;;18.80;59.80;;;;;;5019178;28;20290;-88
2023/05/30 01:01:07;;;;;;;6.90;5.70;;;18.90;59.70;;;;;;5018089;28;20177;-88
2023/05/30 01:03:34;;;;;;;8.18;5.35;;;18.80;59.50;;;;;;5017856;28;20345;-87
2023/05/30 01:06:06;;;;;;;7.43;6.00;;;19.00;58.80;;;;;;5018497;28;20198;-90
2023/05/30 01:08:32;;;;;;;6.20;5.57;;;18.80;59.50;;;;;;5032480;28;20808;-88
2023/05/30 01:11:12;;;;;;;5.75;5.18;;;18.80;59.80;;;;;;5039791;28;20409;-88
2023/05/30 01:14:02;;;;;;;5.50;5.10;;;18.80;59.40;;;;;;5040902;28;20535;-87
2023/05/30 01:16:35;;;;;;;7.05;6.35;;;18.80;59.00;;;;;;5041611;28;20277;-89
2023/05/30 01:19:22;;;;;;;7.25;5.82;;;18.90;59.50;;;;;;5041722;28;20211;-88
2023/05/30 01:21:54;;;;;;;6.38;5.78;;;19.10;58.30;;;;;;5041771;28;20173;-88
2023/05/30 01:24:36;;;;;;;7.00;5.60;;;19.10;58.00;;;;;;5041306;28;20302;-87
2023/05/30 01:27:24;;;;;;;6.22;5.45;;;18.90;58.40;;;;;;5034648;28;20212;-88
2023/05/30 01:29:50;;;;;;;6.47;5.63;;;19.00;58.40;;;;;;5034645;28;20271;-88
2023/05/30 01:32:17;;;;;;;6.82;5.63;;;19.10;57.80;;;;;;5032619;28;20186;-88
2023/05/30 01:34:43;;;;;;;7.03;6.03;;;18.90;57.90;;;;;;5036474;28;20776;-88
2023/05/30 01:37:08;;;;;;;7.07;5.85;;;19.00;57.90;;;;;;5039844;28;20208;-87
2023/05/30 01:39:34;;;;;;;6.40;5.75;;;19.00;57.80;;;;;;5041134;28;20230;-89
2023/05/30 01:42:12;;;;;;;7.53;5.70;;;19.10;57.50;;;;;;5039541;28;20594;-87
2023/05/30 01:45:06;;;;;;;6.90;5.47;;;18.90;58.10;;;;;;5032199;28;20192;-87
2023/05/30 01:47:48;;;;;;;6.63;5.70;;;18.80;58.10;;;;;;5020784;28;20222;-87
2023/05/30 01:50:17;;;;;;;8.32;5.70;;;18.80;58.30;;;;;;5020503;28;20176;-90
2023/05/30 01:52:50;;;;;;;8.82;5.50;;;18.60;59.20;;;;;;5019826;28;20203;-88
2023/05/30 01:55:17;;;;;;;6.10;5.50;;;18.50;59.60;;;;;;5019819;28;20621;-89
2023/05/30 01:57:47;;;;;;;6.32;5.53;;;18.60;59.20;;;;;;5017608;28;20180;-88
2023/05/30 02:00:16;;;;;;;7.22;5.78;;;18.50;59.40;;;;;;5018510;28;20179;-88
2023/05/30 02:02:43;;;;;;;6.38;5.22;;;18.50;59.80;;;;;;5019123;28;20229;-90
2023/05/30 02:05:09;;;;;;;5.78;5.20;;;18.50;59.40;;;;;;5017013;28;20197;-87
2023/05/30 02:07:35;;;;;;;5.95;5.35;;;18.50;59.20;;;;;;5019332;28;20168;-88
2023/05/30 02:10:01;;;;;;;6.45;5.50;;;18.50;59.50;;;;;;5019348;28;20216;-88
2023/05/30 02:12:26;;;;;;;5.90;5.30;;;18.50;59.10;;;;;;5020148;28;20259;-88
2023/05/30 02:14:54;;;;;;;6.53;5.53;;;18.50;59.10;;;;;;5019755;28;20196;-88
2023/05/30 02:17:21;;;;;;;8.43;5.53;;;18.60;58.80;;;;;;5021001;28;20189;-88
2023/05/30 02:19:49;;;;;;;7.68;5.78;;;18.50;59.20;;;;;;5021053;28;20581;-88
2023/05/30 02:22:16;;;;;;;6.60;5.47;;;18.30;59.50;;;;;;5020058;28;20226;-88
2023/05/30 02:24:42;;;;;;;7.35;5.50;;;18.10;60.20;;;;;;5021372;28;20253;-88
2023/05/30 02:27:08;;;;;;;5.60;5.10;;;18.10;60.20;;;;;;5020200;28;20671;-88
2023/05/30 02:29:34;;;;;;;7.78;5.95;;;18.10;59.90;;;;;;5020859;28;20264;-87
2023/05/30 02:32:00;;;;;;;9.63;5.50;;;18.00;59.80;;;;;;5019588;28;20290;-88
2023/05/30 02:34:25;;;;;;;5.38;4.88;;;17.90;60.50;;;;;;5002445;28;20180;-88
2023/05/30 02:36:51;;;;;;;6.47;5.40;;;17.90;60.50;;;;;;5019935;28;20256;-88
2023/05/30 02:39:16;;;;;;;6.50;5.80;;;17.70;61.20;;;;;;5020021;28;20239;-88
2023/05/30 02:41:42;;;;;;;7.93;5.30;;;17.60;61.60;;;;;;5021736;28;20247;-87
2023/05/30 02:44:08;;;;;;;6.43;5.30;;;17.30;62.30;;;;;;5034162;28;20212;-88
2023/05/30 02:46:35;;;;;;;7.27;5.17;;;17.20;62.70;;;;;;5019052;28;20205;-87
2023/05/30 02:49:03;;;;;;;6.33;5.00;;;17.40;62.20;;;;;;5000311;28;20276;-88
2023/05/30 02:51:29;;;;;;;6.43;5.10;;;17.30;61.90;;;;;;5015491;28;20265;-88
2023/05/30 02:53:55;;;;;;;6.37;5.30;;;17.30;61.90;;;;;;5016567;28;20216;-88
2023/05/30 02:56:26;;;;;;;8.30;5.37;;;17.30;62.30;;;;;;5019564;28;20219;-88
2023/05/30 02:58:53;;;;;;;6.53;5.30;;;17.10;62.70;;;;;;5017652;28;20171;-88
2023/05/30 03:01:19;;;;;;;8.03;5.00;;;17.20;62.50;;;;;;5018147;28;20176;-88
2023/05/30 03:03:45;;;;;;;6.23;5.40;;;17.00;62.80;;;;;;5001566;28;20275;-88
2023/05/30 03:06:12;;;;;;;8.33;5.67;;;17.10;62.50;;;;;;5018621;28;20204;-88
2023/05/30 03:08:37;;;;;;;6.33;4.77;;;17.10;62.70;;;;;;5019384;28;20193;-86
2023/05/30 03:11:03;;;;;;;8.83;5.10;;;17.10;62.10;;;;;;5018394;28;20174;-88
2023/05/30 03:13:29;;;;;;;7.17;5.17;;;16.80;62.80;;;;;;5034287;28;20181;-88
2023/05/30 03:15:54;;;;;;;7.03;5.67;;;16.80;63.00;;;;;;5039568;28;20212;-86
2023/05/30 03:18:20;;;;;;;5.10;4.60;;;16.80;62.80;;;;;;5044921;28;20240;-88
2023/05/30 03:20:46;;;;;;;7.00;5.63;;;16.70;63.00;;;;;;5037779;28;20185;-89
2023/05/30 03:23:11;;;;;;;9.13;5.93;;;16.50;63.80;;;;;;5032474;28;20223;-87
2023/05/30 03:25:37;;;;;;;5.23;4.73;;;16.60;63.80;;;;;;5030089;28;20217;-86
2023/05/30 03:28:06;;;;;;;5.87;5.00;;;16.50;63.40;;;;;;5043845;28;20178;-87
2023/05/30 03:30:32;;;;;;;7.87;5.43;;;16.50;63.70;;;;;;5039130;28;20177;-88
2023/05/30 03:32:59;;;;;;;5.90;4.90;;;16.60;63.10;;;;;;5038269;28;20215;-87
2023/05/30 03:35:24;;;;;;;8.57;5.20;;;16.60;62.50;;;;;;5038006;28;20205;-88
2023/05/30 03:37:50;;;;;;;6.43;5.13;;;16.40;63.10;;;;;;5037239;28;20197;-87
2023/05/30 03:40:16;;;;;;;9.93;5.97;;;16.40;63.20;;;;;;5037311;28;20212;-87
2023/05/30 03:42:42;;;;;;;8.83;5.53;;;16.40;62.60;;;;;;5017954;28;20215;-88
2023/05/30 03:45:08;;;;;;;7.23;4.83;;;16.30;62.80;;;;;;5003489;28;20220;-87
2023/05/30 03:47:33;;;;;;;9.07;4.90;;;16.30;62.30;;;;;;4996687;28;20178;-87
2023/05/30 03:50:00;;;;;;;6.23;5.00;;;16.30;62.80;;;;;;4996114;28;20202;-88
2023/05/30 03:52:25;;;;;;;6.87;4.90;;;16.20;62.60;;;;;;4995059;28;20171;-88
2023/05/30 03:54:51;;;;;;;6.13;4.83;;;16.30;62.30;;;;;;5012471;28;20642;-89
2023/05/30 03:57:17;;;;;;;7.57;4.50;;;16.30;62.10;;;;;;5021138;28;20173;-88
2023/05/30 03:59:42;;;;;;;6.33;4.33;;;16.30;61.70;;;;;;5029264;28;20716;-88
2023/05/30 04:02:08;;;;;;;8.20;5.40;;;16.20;61.50;;;;;;5036408;28;20703;-86
2023/05/30 04:04:34;;;;;;;7.27;4.97;;;16.10;62.90;;;;;;5037357;28;20184;-88
2023/05/30 04:07:00;;;;;;;8.23;4.60;;;16.10;62.10;;;;;;5038284;28;20212;-87
2023/05/30 04:09:25;;;;;;;7.30;5.10;;;16.00;62.30;;;;;;5026137;28;20181;-88
2023/05/30 04:11:53;;;;;;;5.10;4.60;;;16.10;62.00;;;;;;5017705;28;20196;-88
2023/05/30 04:14:19;;;;;;;8.70;4.83;;;16.10;61.70;;;;;;5032081;28;20199;-88
2023/05/30 04:16:44;;;;;;;10.20;5.10;;;16.20;60.70;;;;;;5001826;28;20232;-87
2023/05/30 04:19:10;;;;;;;6.07;4.87;;;16.00;61.30;;;;;;5019791;28;20211;-88
2023/05/30 04:21:36;;;;;;;6.87;4.77;;;16.00;60.80;;;;;;5018791;28;20189;-88
2023/05/30 04:24:03;;;;;;;5.97;4.60;;;16.00;60.20;;;;;;5019152;28;20213;-88
2023/05/30 04:26:31;;;;;;;9.50;4.60;;;16.10;59.90;;;;;;5019908;28;20207;-88
2023/05/30 04:28:56;;;;;;;5.03;4.53;;;15.90;60.10;;;;;;5019068;28;20192;-87
2023/05/30 04:31:27;;;;;;;6.63;4.37;;;15.80;60.30;;;;;;5018719;28;20650;-87
2023/05/30 04:33:54;;;;;;;6.53;4.40;;;15.90;60.10;;;;;;5018067;28;20228;-88
2023/05/30 04:36:20;;;;;;;8.97;4.57;;;15.90;59.90;;;;;;5018038;28;20212;-88
2023/05/30 04:38:49;;;;;;;7.23;4.80;;;15.90;59.80;;;;;;5018132;28;20188;-87
2023/05/30 04:41:20;;;;;;;5.80;4.60;;;16.10;59.50;;;;;;5017264;28;20182;-88
2023/05/30 04:43:54;;;;;;;7.63;4.57;;;16.10;59.10;;;;;;5015184;28;20256;-87
2023/05/30 04:46:22;;;;;;;7.93;4.80;;;16.10;58.90;;;;;;4989828;28;20292;-87
2023/05/30 04:48:53;;;;;;;5.63;4.20;;;16.10;59.10;;;;;;5026345;28;20180;-87
2023/05/30 04:51:23;;;;;;;6.83;4.20;;;16.10;59.40;;;;;;5034826;28;20165;-87
2023/05/30 04:53:50;;;;;;;8.40;5.13;;;16.20;58.80;;;;;;5034316;28;20200;-87
2023/05/30 04:56:16;;;;;;;10.33;4.97;;;16.30;58.80;;;;;;5020685;28;20231;-87
2023/05/30 04:58:44;;;;;;;7.67;4.50;;;16.40;58.60;;;;;;5035917;28;20197;-89
2023/05/30 05:01:10;;;;;;;7.83;4.67;;;16.50;58.20;;;;;;5007194;28;20202;-89
2023/05/30 05:03:38;;;;;;;9.20;4.83;;;16.50;58.50;;;;;;5009287;28;20209;-86
2023/05/30 05:06:05;;;;;;;6.73;5.17;;;16.50;58.40;;;;;;5001369;28;20392;-87
2023/05/30 05:08:30;;;;;;;8.63;4.80;;;16.60;58.30;;;;;;5010804;28;20213;-87
2023/05/30 05:10:56;;;;;;;5.97;4.40;;;16.50;58.80;;;;;;5020847;28;20644;-87
2023/05/30 05:13:21;;;;;;;8.30;5.07;;;16.50;59.40;;;;;;5021240;28;20188;-87
2023/05/30 05:15:47;;;;;;;7.43;4.63;;;16.60;59.50;;;;;;5020473;28;20297;-87
2023/05/30 05:18:13;;;;;;;14.40;5.83;;;16.70;59.00;;;;;;5021318;28;20205;-87
2023/05/30 05:20:38;;;;;;;7.60;4.63;;;16.70;59.30;;;;;;5020966;28;20675;-89
2023/05/30 05:23:04;;;;;;;9.30;4.87;;;16.60;59.30;;;;;;5021831;28;20207;-87
2023/05/30 05:25:30;;;;;;;11.17;5.33;;;16.70;59.20;;;;;;5023595;28;20280;-86
2023/05/30 05:27:55;;;;;;;7.60;4.83;;;16.70;58.90;;;;;;5021623;28;20248;-87
2023/05/30 05:30:21;;;;;;;6.10;5.10;;;16.50;59.30;;;;;;5021495;28;20227;-87
2023/05/30 05:32:47;;;;;;;9.47;4.93;;;16.60;59.20;;;;;;5021669;28;20187;-88
2023/05/30 05:35:12;;;;;;;6.77;5.20;;;16.70;59.40;;;;;;5002966;28;20212;-88
2023/05/30 05:37:38;;;;;;;9.47;5.40;;;16.60;58.80;;;;;;5002055;28;20262;-87
2023/05/30 05:40:05;;;;;;;7.90;4.73;;;16.50;59.50;;;;;;5003864;28;20190;-88
2023/05/30 05:42:33;;;;;;;10.90;5.03;;;16.50;59.80;;;;;;5019193;28;20239;-89
2023/05/30 05:44:58;;;;;;;6.27;5.30;;;16.70;59.30;;;;;;5018327;28;20206;-89
2023/05/30 05:47:24;;;;;;;8.50;4.73;;;16.60;60.00;;;;;;5019219;28;20568;-86
2023/05/30 05:49:51;;;;;;;5.03;4.53;;;16.60;59.30;;;;;;5019397;28;20173;-88
2023/05/30 05:52:17;;;;;;;5.73;4.63;;;16.60;59.20;;;;;;5018682;28;20167;-87
2023/05/30 05:54:43;;;;;;;13.93;5.90;;;16.90;59.00;;;;;;5023988;28;20568;-86
2023/05/30 05:57:08;;;;;;;6.10;4.60;;;17.00;57.80;;;;;;5021433;28;20238;-88
2023/05/30 05:59:34;;;;;;;7.13;4.50;;;17.00;58.60;;;;;;5039126;28;20188;-88
2023/05/30 06:02:00;;;;;;;8.07;4.57;;;17.10;58.50;;;;;;5038184;28;20703;-88
2023/05/30 06:04:25;;;;;;;7.13;4.73;;;17.10;58.40;;;;;;5043578;28;20241;-88
2023/05/30 06:06:51;;;;;;;11.80;5.33;;;17.10;58.40;;;;;;5041530;28;20638;-87
2023/05/30 06:09:17;;;;;;;8.50;5.17;;;17.00;58.20;;;;;;5007695;28;20189;-88
2023/05/30 06:11:43;;;;;;;5.97;4.97;;;17.00;57.90;;;;;;5019749;28;20173;-87
2023/05/30 06:14:08;;;;;;;7.47;5.33;;;17.10;57.20;;;;;;5020290;28;20182;-89
2023/05/30 06:16:34;;;;;;;7.03;5.27;;;17.30;57.30;;;;;;5021798;28;20601;-85
2023/05/30 06:19:00;;;;;;;7.73;4.97;;;17.30;57.10;;;;;;5028421;28;20192;-89
2023/05/30 06:21:25;;;;;;;8.43;4.87;;;17.30;56.10;;;;;;5019499;28;20263;-88
2023/05/30 06:23:51;;;;;;;7.20;4.70;;;17.30;56.30;;;;;;5019773;28;20209;-88
2023/05/30 06:26:16;;;;;;;8.27;5.30;;;17.30;55.30;;;;;;5020149;28;20297;-87
2023/05/30 06:28:42;;;;;;;5.53;4.60;;;17.10;56.40;;;;;;5022947;28;20187;-88
2023/05/30 06:31:08;;;;;;;7.00;5.03;;;17.00;56.30;;;;;;5034616;28;20177;-86
2023/05/30 06:33:33;;;;;;;9.73;5.30;;;16.90;57.10;;;;;;5023374;28;20197;-88
2023/05/30 06:35:59;;;;;;;9.80;5.10;;;17.00;57.20;;;;;;5018516;28;20304;-86
2023/05/30 06:38:25;;;;;;;10.40;5.40;;;17.20;56.30;;;;;;5019035;28;20190;-86
2023/05/30 06:40:51;;;;;;;10.83;4.97;;;17.40;55.80;;;;;;5019910;28;20190;-88
2023/05/30 06:43:16;;;;;;;8.70;5.10;;;17.60;55.70;;;;;;5024748;28;20211;-86
2023/05/30 06:45:43;;;;;;;8.40;5.53;;;17.70;55.40;;;;;;5017572;28;20268;-87
2023/05/30 06:48:08;;;;;;;8.73;4.80;;;17.80;55.60;;;;;;5016299;28;20179;-87
2023/05/30 06:50:35;;;;;;;7.07;5.20;;;17.90;55.10;;;;;;5016415;28;20188;-88
2023/05/30 06:53:01;;;;;;;11.50;5.63;;;17.90;54.60;;;;;;5018204;28;20282;-88
2023/05/30 06:55:26;;;;;;;8.50;5.37;;;18.00;53.80;;;;;;5027320;28;20244;-87
2023/05/30 06:57:55;;;;;;;11.33;5.80;;;18.00;53.70;;;;;;5001302;28;20193;-90
2023/05/30 07:00:22;;;;;;;9.27;5.30;;;18.00;53.90;;;;;;5016209;28;20197;-87
2023/05/30 07:02:47;;;;;;;9.57;4.87;;;17.90;54.30;;;;;;5019123;28;20206;-87
2023/05/30 07:05:13;;;;;;;6.53;4.80;;;17.90;54.10;;;;;;4997962;28;20220;-88
2023/05/30 07:07:41;;;;;;;6.23;5.63;;;18.00;54.60;;;;;;5017046;28;20243;-87
2023/05/30 07:10:07;;;;;;;11.23;5.63;;;18.10;54.40;;;;;;5017815;28;20295;-88
2023/05/30 07:12:33;;;;;;;12.60;5.53;;;18.20;53.90;;;;;;5017348;28;20252;-87
2023/05/30 07:14:58;;;;;;;10.27;5.33;;;18.20;53.90;;;;;;5017906;28;20239;-88
2023/05/30 07:17:24;;;;;;;10.97;9.87;;;18.30;53.60;;;;;;5017912;28;20261;-86
2023/05/30 07:19:50;;;;;;;8.80;5.47;;;18.50;53.50;;;;;;5018029;28;20189;-87
2023/05/30 07:22:16;;;;;;;8.40;5.57;;;18.40;53.20;;;;;;5017045;28;20217;-88
2023/05/30 07:24:41;;;;;;;7.47;5.40;;;18.30;53.60;;;;;;5018950;28;20181;-88
2023/05/30 07:27:07;;;;;;;9.60;5.22;;;18.60;54.00;;;;;;5040299;28;20196;-88
2023/05/30 07:29:32;;;;;;;9.85;5.03;;;18.80;52.80;;;;;;5037535;28;20183;-88
2023/05/30 07:31:58;;;;;;;9.50;5.38;;;19.00;52.20;;;;;;5036604;28;20311;-87
2023/05/30 07:34:24;;;;;;;8.35;4.93;;;19.00;52.70;;;;;;5037902;28;20192;-87
2023/05/30 07:36:50;;;;;;;10.18;5.75;;;19.10;52.00;;;;;;5036640;28;20227;-88
2023/05/30 07:39:15;;;;;;;8.90;5.90;;;19.10;50.90;;;;;;5035515;28;20242;-88
2023/05/30 07:41:41;;;;;;;6.13;4.60;;;19.00;51.30;;;;;;5036526;28;20194;-88
2023/05/30 07:44:06;;;;;;;7.38;5.40;;;19.30;53.00;;;;;;5037668;28;20211;-88
2023/05/30 07:46:32;;;;;;;9.07;5.75;;;19.50;52.30;;;;;;5033049;28;20211;-88
2023/05/30 07:48:58;;;;;;;5.70;5.10;;;19.70;49.10;;;;;;5036669;28;20183;-88
2023/05/30 07:51:23;;;;;;;7.13;5.05;;;19.90;48.20;;;;;;5035137;28;20264;-88
2023/05/30 07:53:49;;;;;;;9.23;5.18;;;19.80;49.30;;;;;;5036691;28;20361;-89
2023/05/30 07:56:15;;;;;;;5.80;5.18;;;19.90;49.20;;;;;;5035927;28;20205;-89
2023/05/30 07:58:40;;;;;;;6.07;5.43;;;19.80;47.90;;;;;;5037470;28;20196;-88
2023/05/30 08:01:06;;;;;;;11.40;5.53;;;19.80;48.10;;;;;;5023022;28;20201;-86
2023/05/30 08:03:32;;;;;;;8.07;5.50;;;19.90;47.60;;;;;;5018267;28;20261;-87
2023/05/30 08:05:57;;;;;;;7.22;5.53;;;20.10;47.70;;;;;;5019137;28;20225;-88
2023/05/30 08:08:24;;;;;;;6.47;5.32;;;20.20;46.30;;;;;;5018101;28;20639;-87
2023/05/30 08:10:49;;;;;;;7.75;5.60;;;20.30;46.50;;;;;;5018305;28;20254;-89
2023/05/30 08:13:15;;;;;;;6.95;5.57;;;20.30;46.50;;;;;;5018535;28;20206;-87
2023/05/30 08:15:41;;;;;;;7.13;5.72;;;20.30;46.70;;;;;;5019225;28;20232;-87
2023/05/30 08:18:08;;;;;;;5.47;4.97;;;20.30;46.50;;;;;;5017920;28;20197;-88
2023/05/30 08:20:35;;;;;;;6.65;5.63;;;20.50;45.80;;;;;;5016435;28;20174;-87
2023/05/30 08:23:03;;;;;;;6.13;4.80;;;20.70;45.70;;;;;;4999800;28;20224;-87
2023/05/30 08:25:35;;;;;;;7.78;5.45;;;20.50;46.20;;;;;;5017987;28;20740;-87
2023/05/30 08:28:01;;;;;;;5.88;5.15;;;20.50;46.70;;;;;;5018470;28;20154;-89
2023/05/30 08:30:27;;;;;;;6.70;5.40;;;20.60;45.80;;;;;;5016313;28;20247;-87
2023/05/30 08:32:53;;;;;;;6.97;5.55;;;20.60;46.10;;;;;;5016156;28;20182;-86
2023/05/30 08:35:19;;;;;;;6.35;5.75;;;20.70;46.00;;;;;;5016271;28;20244;-88
2023/05/30 08:37:45;;;;;;;8.75;5.65;;;20.90;45.50;;;;;;5016197;28;20205;-88
2023/05/30 08:40:13;;;;;;;6.07;5.60;;;21.00;43.90;;;;;;5000980;28;20210;-89
2023/05/30 08:42:42;;;;;;;8.85;6.05;;;21.30;43.70;;;;;;5002173;28;20687;-89
2023/05/30 08:45:08;;;;;;;8.27;6.03;;;21.40;43.80;;;;;;5020846;28;20373;-89
2023/05/30 08:47:35;;;;;;;8.35;5.50;;;21.40;42.80;;;;;;5020177;28;20205;-88
2023/05/30 08:50:04;;;;;;;6.88;5.80;;;21.40;41.90;;;;;;5019205;28;20229;-87
2023/05/30 08:52:31;;;;;;;6.50;5.65;;;21.70;42.30;;;;;;5019778;28;20178;-88
2023/05/30 08:55:11;;;;;;;8.27;5.78;;;21.70;41.80;;;;;;5020820;28;20211;-89
2023/05/30 08:58:04;;;;;;;5.97;5.47;;;21.60;41.80;;;;;;5020230;28;20183;-88
2023/05/30 09:00:33;;;;;;;6.68;5.95;;;21.70;42.70;;;;;;5021301;28;20551;-89
2023/05/30 09:02:59;;;;;;;7.82;6.20;;;21.80;40.70;;;;;;5020394;28;20229;-88
2023/05/30 09:05:26;;;;;;;6.38;5.78;;;22.10;39.80;;;;;;5034175;28;20212;-88
2023/05/30 09:07:53;;;;;;;6.65;6.07;;;22.30;39.10;;;;;;5036929;28;20258;-88
2023/05/30 09:10:19;;;;;;;7.22;6.30;;;22.30;38.40;;;;;;5024035;28;20183;-87
2023/05/30 09:12:45;;;;;;;6.70;6.03;;;22.40;38.30;;;;;;5023294;28;20513;-88
2023/05/30 09:15:11;;;;;;;7.53;6.60;;;22.70;37.70;;;;;;5024054;28;20284;-88
2023/05/30 09:17:37;;;;;;;7.50;6.70;;;23.00;37.60;;;;;;5024332;28;20572;-87
2023/05/30 09:20:03;;;;;;;7.57;6.80;;;23.20;36.20;;;;;;5023804;28;20193;-87
2023/05/30 09:22:29;;;;;;;7.88;7.00;;;23.20;35.90;;;;;;5022179;28;20240;-88
2023/05/30 09:25:05;;;;;;;7.63;6.93;;;23.00;36.30;;;;;;5022549;28;20180;-87
2023/05/30 09:27:35;;;;;;;10.32;6.70;;;23.00;36.30;;;;;;5020646;28;20410;-89
2023/05/30 09:30:10;;;;;;;7.60;6.90;;;23.20;36.30;;;;;;5022835;28;20181;-89
2023/05/30 09:32:39;;;;;;;7.63;6.80;;;23.20;35.60;;;;;;4998513;28;20272;-88
2023/05/30 09:35:09;;;;;;;7.85;7.35;;;23.40;36.20;;;;;;5000230;28;20264;-88
2023/05/30 09:37:41;;;;;;;7.82;7.22;;;23.20;35.60;;;;;;5000152;28;20233;-87
2023/05/30 09:40:07;;;;;;;8.00;7.20;;;23.20;35.40;;;;;;4999295;28;20175;-87
2023/05/30 09:42:41;;;;;;;10.55;7.40;;;23.30;35.50;;;;;;4998774;28;20621;-88
2023/05/30 09:45:15;;;;;;;8.45;7.43;;;23.50;35.40;;;;;;5014636;28;20184;-87
2023/05/30 09:47:45;;;;;;;7.57;7.07;;;23.70;35.00;;;;;;5001964;28;20193;-88
2023/05/30 09:50:13;;;;;;;9.45;7.57;;;23.80;34.80;;;;;;5019981;28;20277;-88
2023/05/30 09:52:40;;;;;;;8.80;8.10;;;23.90;34.30;;;;;;5015554;28;20707;-88
2023/05/30 09:55:12;;;;;;;8.93;8.18;;;24.00;34.10;;;;;;5017532;28;20185;-88
2023/05/30 09:57:40;;;;;;;8.85;8.00;;;24.10;34.00;;;;;;5021653;28;20166;-89
2023/05/30 10:00:11;;;;;;;8.10;7.35;;;24.10;34.30;;;;;;5021287;28;20231;-87
2023/05/30 10:02:39;;;;;;;8.52;7.88;;;24.30;34.90;;;;;;5020409;28;20209;-88
2023/05/30 10:05:06;;;;;;;8.35;7.55;;;24.40;33.90;;;;;;5024823;28;20240;-89
2023/05/30 10:07:32;;;;;;;9.20;8.50;;;24.50;34.60;;;;;;5019459;28;20177;-86
2023/05/30 10:09:58;;;;;;;10.27;9.43;;;24.80;33.40;;;;;;5020078;28;20196;-87
2023/05/30 10:12:24;;;;;;;9.65;8.95;;;24.80;32.50;;;;;;5020302;28;20655;-88
2023/05/30 10:14:50;;;;;;;11.88;10.70;;;25.10;32.80;;;;;;5020245;28;20182;-87
2023/05/30 10:17:18;;;;;;;11.35;10.23;;;24.80;32.90;;;;;;5019579;28;20268;-88
2023/05/30 10:19:54;;;;;;;11.80;11.02;;;24.80;32.80;;;;;;5021764;28;20358;-88
2023/05/30 10:22:23;;;;;;;11.13;9.93;;;24.80;32.70;;;;;;5018109;28;20180;-89
2023/05/30 10:24:50;;;;;;;11.13;10.32;;;25.20;32.80;;;;;;5018460;28;20170;-86
2023/05/30 10:27:20;;;;;;;11.88;11.00;;;25.40;31.60;;;;;;5018912;28;20204;-88
2023/05/30 10:30:06;;;;;;;11.60;10.90;;;25.40;31.30;;;;;;5019958;28;20181;-88
2023/05/30 10:32:36;;;;;;;16.02;12.18;;;25.60;31.00;;;;;;5020326;28;20177;-86
2023/05/30 10:35:17;;;;;;;11.85;10.85;;;25.60;30.90;;;;;;5003862;28;20174;-88
2023/05/30 10:37:46;;;;;;;12.35;11.35;;;25.50;32.00;;;;;;5019088;28;20212;-88
2023/05/30 10:40:45;;;;;;;11.75;11.00;;;25.70;31.20;;;;;;5018555;28;20193;-87
2023/05/30 10:43:13;;;;;;;11.57;10.75;;;26.00;30.90;;;;;;5019204;28;20456;-86
2023/05/30 10:45:52;;;;;;;11.70;11.07;;;25.90;30.80;;;;;;5019244;28;20202;-88
2023/05/30 10:48:29;;;;;;;12.13;11.43;;;26.00;31.00;;;;;;5021608;28;20178;-88
2023/05/30 10:50:59;;;;;;;12.32;11.63;;;26.50;30.00;;;;;;4993789;28;20197;-89
2023/05/30 10:53:25;;;;;;;12.98;12.18;;;26.70;30.00;;;;;;5019297;28;20182;-88
2023/05/30 10:55:51;;;;;;;13.13;12.13;;;26.60;29.90;;;;;;5021489;28;20748;-87
2023/05/30 10:58:37;;;;;;;12.73;11.93;;;26.60;29.70;;;;;;5001145;28;20695;-90
2023/05/30 11:01:26;;;;;;;12.70;11.70;;;26.60;30.00;;;;;;5017641;28;20181;-88
2023/05/30 11:04:17;;;;;;;12.88;12.15;;;26.70;29.60;;;;;;5010206;28;20202;-89
2023/05/30 11:06:44;;;;;;;12.30;11.57;;;26.60;30.60;;;;;;5018669;28;20233;-88
2023/05/30 11:09:12;;;;;;;13.00;12.23;;;26.70;31.20;;;;;;5019298;28;20189;-87
2023/05/30 11:11:43;;;;;;;12.63;11.80;;;26.80;30.00;;;;;;5000896;28;20525;-88
2023/05/30 11:17:06;;;;;;;13.38;12.43;;;26.70;29.70;;;;;;5006484;28;20213;-88
2023/05/30 11:19:45;;;;;;;12.95;12.23;;;27.10;29.60;;;;;;5034418;28;20196;-88
2023/05/30 11:22:17;;;;;;;13.75;12.77;;;27.40;29.40;;;;;;5029652;28;20169;-88
2023/05/30 11:24:44;;;;;;;14.68;13.88;;;27.60;28.70;;;;;;5002987;28;20184;-88
2023/05/30 11:27:16;;;;;;;15.10;14.30;;;27.80;28.80;;;;;;5019819;28;20255;-88
2023/05/30 11:29:49;;;;;;;15.10;14.23;;;27.60;29.40;;;;;;5019343;28;20186;-86
2023/05/30 11:32:23;;;;;;;15.40;14.63;;;27.90;28.40;;;;;;5019168;28;20234;-88
2023/05/30 11:34:58;;;;;;;16.00;15.05;;;28.20;28.30;;;;;;5018736;28;20403;-88
2023/05/30 11:37:25;;;;;;;15.45;14.55;;;27.90;28.00;;;;;;5001612;28;20261;-87
2023/05/30 11:39:57;;;;;;;16.23;15.27;;;27.60;28.00;;;;;;5019654;28;20232;-87
2023/05/30 11:42:24;;;;;;;15.60;14.60;;;27.60;28.20;;;;;;5018695;28;20182;-87
2023/05/30 11:44:50;;;;;;;15.73;14.73;;;27.50;28.60;;;;;;5018740;28;20170;-87
2023/05/30 11:47:15;;;;;;;15.48;14.40;;;27.90;28.10;;;;;;5016534;28;20634;-88
2023/05/30 11:49:41;;;;;;;15.90;14.93;;;28.00;28.40;;;;;;5030986;28;20193;-88
2023/05/30 11:52:08;;;;;;;15.70;14.65;;;28.10;28.10;;;;;;5020261;28;20220;-86
2023/05/30 11:54:34;;;;;;;16.23;15.43;;;28.20;28.40;;;;;;5020715;28;20220;-86
2023/05/30 11:57:01;;;;;;;16.58;15.30;;;28.40;28.00;;;;;;5018603;28;20212;-87
2023/05/30 11:59:27;;;;;;;15.95;15.02;;;28.70;27.40;;;;;;5014896;28;20516;-87
2023/05/30 12:02:01;;;;;;;16.83;15.80;;;28.50;27.40;;;;;;5015313;28;20591;-88
2023/05/30 12:04:29;;;;;;;16.17;15.18;;;27.70;28.30;;;;;;5018934;28;20431;-88
2023/05/30 12:07:02;;;;;;;15.68;14.88;;;27.90;27.60;;;;;;5022738;28;20197;-86
2023/05/30 12:09:41;;;;;;;17.02;15.82;;;28.50;27.20;;;;;;5019120;28;20182;-86
2023/05/30 12:12:07;;;;;;;17.08;16.17;;;28.80;26.00;;;;;;5015284;28;20682;-86
2023/05/30 12:14:59;;;;;;;16.60;15.50;;;28.90;26.10;;;;;;5025661;28;20196;-87
2023/05/30 12:17:25;;;;;;;16.92;16.13;;;29.10;27.30;;;;;;5028576;28;20177;-86
2023/05/30 12:19:55;;;;;;;16.58;15.73;;;28.90;26.10;;;;;;5023837;28;20662;-88
2023/05/30 12:22:23;;;;;;;17.27;15.98;;;28.90;26.30;;;;;;5011553;28;20185;-88
2023/05/30 12:24:49;;;;;;;17.02;16.13;;;29.20;26.40;;;;;;5035673;28;20170;-87
2023/05/30 12:27:22;;;;;;;17.60;16.70;;;29.90;25.70;;;;;;5027964;28;20205;-88
2023/05/30 12:29:48;;;;;;;18.90;17.70;;;29.90;26.40;;;;;;5028284;28;20282;-86
2023/05/30 12:32:21;;;;;;;18.15;17.25;;;29.70;26.90;;;;;;5021833;28;20205;-87
2023/05/30 12:34:47;;;;;;;21.90;20.38;;;29.90;26.70;;;;;;5022314;28;20188;-87
2023/05/30 12:37:14;;;;;;;22.55;21.45;;;30.30;25.40;;;;;;5001505;28;20559;-87
2023/05/30 12:40:00;;;;;;;24.20;22.90;;;30.40;24.40;;;;;;5019202;28;20241;-86
2023/05/30 12:42:27;;;;;;;24.00;22.90;;;30.60;24.80;;;;;;5014474;28;20189;-86
2023/05/30 12:44:55;;;;;;;24.23;22.90;;;30.80;24.40;;;;;;5015795;28;20200;-87
2023/05/30 12:47:22;;;;;;;24.75;23.65;;;30.80;24.20;;;;;;5016893;28;20664;-85
2023/05/30 12:49:48;;;;;;;24.75;23.45;;;30.20;25.00;;;;;;5003155;28;20209;-85
2023/05/30 12:52:15;;;;;;;23.50;22.38;;;30.40;25.40;;;;;;5019781;28;20192;-86